Time;durP1;ratioP1;P1;durP2;ratioP2;P2;SDS_P1;SDS_P2;PMS_P1;PMS_P2;Temp;Humidity;BMP_temperature;BMP_pressure;BME280_temperature;BME280_humidity;BME280_pressure;Samples;Min_cycle;Max_cycle;Signal;HPM_P1;HPM_P2
2022/05/02 00:00:33;;;;;;;40.70;31.47;;;;;;;9.45;100.00;99253.44;2116138;28;20283;-67
2022/05/02 00:01:33;;;;;;;38.00;31.58;;;;;;;9.47;100.00;99244.13;2125053;27;20192;-68
2022/05/02 00:02:36;;;;;;;39.67;32.17;;;;;;;9.47;100.00;99243.31;2115820;28;20213;-67
2022/05/02 00:03:37;;;;;;;40.35;32.42;;;;;;;9.48;100.00;99242.25;2116217;27;20185;-67
2022/05/02 00:04:38;;;;;;;40.22;32.00;;;;;;;9.48;100.00;99242.25;2115929;28;20193;-67
2022/05/02 00:05:41;;;;;;;37.70;30.47;;;;;;;9.50;100.00;99240.88;2116111;28;20227;-67
2022/05/02 00:06:42;;;;;;;35.83;30.38;;;;;;;9.47;100.00;99245.97;2124706;27;20224;-67
2022/05/02 00:07:44;;;;;;;36.47;30.13;;;;;;;9.47;100.00;99246.78;2125288;27;20188;-67
2022/05/02 00:08:46;;;;;;;34.47;29.20;;;;;;;9.43;100.00;99248.41;2115851;28;20197;-67
2022/05/02 00:09:48;;;;;;;35.47;29.35;;;;;;;9.41;100.00;99242.59;2115967;28;20185;-67
2022/05/02 00:10:49;;;;;;;35.33;29.73;;;;;;;9.41;100.00;99244.47;2125245;27;20189;-67
2022/05/02 00:11:50;;;;;;;40.85;30.70;;;;;;;9.39;100.00;99242.09;2124270;27;20237;-67
2022/05/02 00:12:53;;;;;;;32.90;28.53;;;;;;;9.37;100.00;99241.56;2124662;27;20300;-67
2022/05/02 00:13:55;;;;;;;37.25;29.77;;;;;;;9.37;100.00;99238.09;2124992;27;20188;-67
2022/05/02 00:14:57;;;;;;;37.70;29.55;;;;;;;9.31;100.00;99246.16;2124957;27;20192;-68
2022/05/02 00:15:59;;;;;;;36.20;29.55;;;;;;;9.31;100.00;99248.81;2124971;27;20244;-68
2022/05/02 00:17:00;;;;;;;35.05;29.08;;;;;;;9.29;100.00;99242.97;2124905;27;20185;-68
2022/05/02 00:18:01;;;;;;;38.83;30.20;;;;;;;9.27;100.00;99250.44;2124976;27;20234;-67
2022/05/02 00:19:03;;;;;;;36.55;29.80;;;;;;;9.27;100.00;99249.66;2124974;27;20192;-68
2022/05/02 00:20:07;;;;;;;39.33;30.73;;;;;;;9.25;100.00;99251.81;2125051;27;20195;-68
2022/05/02 00:21:09;;;;;;;39.72;32.10;;;;;;;9.22;100.00;99249.72;2115108;28;20197;-67
2022/05/02 00:22:09;;;;;;;40.53;32.63;;;;;;;9.20;100.00;99246.53;2115878;28;20209;-68
2022/05/02 00:23:11;;;;;;;40.27;32.13;;;;;;;9.21;100.00;99253.44;2124383;27;20279;-68
2022/05/02 00:24:14;;;;;;;37.83;31.73;;;;;;;9.21;100.00;99250.78;2124413;27;20188;-68
2022/05/02 00:25:18;;;;;;;39.85;32.65;;;;;;;9.20;100.00;99249.19;2115730;28;20195;-67
2022/05/02 00:26:20;;;;;;;42.67;33.28;;;;;;;9.20;100.00;99244.66;2108078;28;20197;-68
2022/05/02 00:27:21;;;;;;;46.35;33.58;;;;;;;9.21;100.00;99242.78;2115707;28;20193;-68
2022/05/02 00:28:23;;;;;;;42.43;34.80;;;;;;;9.20;100.00;99246.53;2125013;27;20201;-68
2022/05/02 00:29:24;;;;;;;41.60;34.45;;;;;;;9.22;100.00;99249.72;2124842;27;20188;-68
2022/05/02 00:30:27;;;;;;;37.67;32.33;;;;;;;9.20;100.00;99241.19;2115782;28;20193;-68
2022/05/02 00:31:28;;;;;;;38.58;31.67;;;;;;;9.21;100.00;99243.59;2107392;28;20251;-68
2022/05/02 00:32:30;;;;;;;42.30;31.00;;;;;;;9.20;100.00;99244.66;2107221;28;20185;-68
2022/05/02 00:33:33;;;;;;;43.22;31.52;;;;;;;9.20;100.00;99243.84;2115891;28;20592;-69
2022/05/02 00:34:35;;;;;;;39.20;32.17;;;;;;;9.19;100.00;99250.25;2124938;27;20615;-69
2022/05/02 00:35:39;;;;;;;36.05;30.85;;;;;;;9.15;100.00;99246.59;2115646;28;20201;-70
2022/05/02 00:36:40;;;;;;;40.90;30.23;;;;;;;9.15;100.00;99244.72;2107201;28;20287;-68
2022/05/02 00:37:43;;;;;;;34.00;30.03;;;;;;;9.12;100.00;99241.81;2115775;28;20282;-68
2022/05/02 00:38:44;;;;;;;38.03;29.55;;;;;;;9.08;100.00;99244.25;2115185;28;20204;-68
2022/05/02 00:39:47;;;;;;;36.03;30.27;;;;;;;9.11;100.00;99248.22;2107149;28;20198;-68
2022/05/02 00:40:49;;;;;;;35.05;30.92;;;;;;;9.10;100.00;99246.63;2116226;27;20671;-69
2022/05/02 00:41:51;;;;;;;41.42;30.20;;;;;;;9.07;100.00;99245.34;2124786;27;20188;-68
2022/05/02 00:42:51;;;;;;;36.10;29.67;;;;;;;9.04;100.00;99245.91;2124809;27;20291;-68
2022/05/02 00:43:55;;;;;;;35.40;29.80;;;;;;;9.02;100.00;99245.38;2115584;28;20185;-68
2022/05/02 00:44:55;;;;;;;37.20;30.35;;;;;;;9.01;100.00;99249.91;2107375;28;20715;-68
2022/05/02 00:45:57;;;;;;;34.03;29.57;;;;;;;9.00;100.00;99247.53;2115785;28;20185;-68
2022/05/02 00:46:58;;;;;;;38.42;30.92;;;;;;;8.99;100.00;99245.94;2124745;27;20236;-68
2022/05/02 00:48:00;;;;;;;36.03;31.20;;;;;;;8.98;100.00;99249.69;2124871;27;20237;-68
2022/05/02 00:49:02;;;;;;;39.35;31.33;;;;;;;8.96;100.00;99241.19;2125066;27;20429;-68
2022/05/02 00:50:04;;;;;;;36.35;30.25;;;;;;;8.96;100.00;99244.63;2114876;28;20200;-69
2022/05/02 00:51:06;;;;;;;36.83;30.90;;;;;;;8.95;100.00;99248.38;2115284;28;20230;-68
2022/05/02 00:52:07;;;;;;;44.13;30.73;;;;;;;8.91;100.00;99239.34;2124109;27;20239;-69
2022/05/02 00:53:10;;;;;;;35.63;29.83;;;;;;;8.91;100.00;99241.22;2124358;27;20187;-69
2022/05/02 00:54:11;;;;;;;38.15;29.85;;;;;;;8.91;100.00;99244.69;2124922;27;20626;-68
2022/05/02 00:55:15;;;;;;;38.10;31.13;;;;;;;8.88;100.00;99239.13;2115501;28;20733;-69
2022/05/02 00:56:18;;;;;;;37.97;30.30;;;;;;;8.86;100.00;99242.06;2115984;28;20196;-68
2022/05/02 00:57:19;;;;;;;37.65;31.00;;;;;;;8.85;100.00;99245.78;2124675;27;20192;-68
2022/05/02 00:58:20;;;;;;;35.07;30.33;;;;;;;8.84;100.00;99233.56;2124855;27;20187;-68
2022/05/02 00:59:22;;;;;;;33.58;29.58;;;;;;;8.86;100.00;99247.41;2124673;27;20180;-68
2022/05/02 01:00:24;;;;;;;36.90;31.17;;;;;;;8.86;100.00;99246.56;2115502;28;20189;-69
2022/05/02 01:01:26;;;;;;;38.30;29.75;;;;;;;8.83;100.00;99242.63;2115626;28;20261;-68
2022/05/02 01:02:28;;;;;;;38.33;31.02;;;;;;;8.84;100.00;99240.75;2124510;27;20212;-68
2022/05/02 01:03:31;;;;;;;37.60;31.13;;;;;;;8.83;100.00;99247.94;2124613;27;20246;-68
2022/05/02 01:04:32;;;;;;;36.40;31.10;;;;;;;8.81;100.00;99236.00;2115464;28;20208;-68
2022/05/02 01:07:08;;;;;;;35.57;30.47;;;;;;;8.81;100.00;99243.97;2115690;28;20191;-68
2022/05/02 01:07:10;;;;;;;38.58;31.20;;;;;;;8.80;100.00;99239.72;2124533;27;20236;-68
2022/05/02 01:08:11;;;;;;;39.13;31.48;;;;;;;8.78;100.00;99240.03;2115436;28;20192;-68
2022/05/02 01:09:14;;;;;;;35.47;30.37;;;;;;;8.76;100.00;99239.47;2115566;28;20721;-68
2022/05/02 01:10:19;;;;;;;37.45;31.63;;;;;;;8.73;100.00;99232.06;2115377;28;20620;-68
2022/05/02 01:11:19;;;;;;;39.83;31.35;;;;;;;8.74;100.00;99244.28;2106834;28;20202;-69
2022/05/02 01:12:24;;;;;;;36.47;31.67;;;;;;;8.73;100.00;99245.38;2115446;28;20181;-68
2022/05/02 01:13:35;;;;;;;36.30;32.33;;;;;;;8.70;100.00;99249.38;2124523;27;20196;-68
2022/05/02 01:14:38;;;;;;;36.10;31.95;;;;;;;8.72;100.00;99249.09;2124648;27;20618;-68
2022/05/02 01:15:41;;;;;;;38.85;31.85;;;;;;;8.70;100.00;99245.94;2124495;27;20212;-69
2022/05/02 01:16:43;;;;;;;40.97;32.33;;;;;;;8.63;100.00;99237.47;2124463;27;20195;-68
2022/05/02 01:17:49;;;;;;;39.35;32.03;;;;;;;8.65;100.00;99244.09;2114973;28;20201;-68
2022/05/02 01:18:51;;;;;;;42.33;30.50;;;;;;;8.64;100.00;99241.72;2106752;28;20201;-68
2022/05/02 01:19:53;;;;;;;38.28;31.75;;;;;;;8.64;100.00;99239.06;2115586;28;20226;-68
2022/05/02 01:20:55;;;;;;;41.97;32.25;;;;;;;8.61;100.00;99234.31;2123799;27;20192;-69
2022/05/02 01:21:57;;;;;;;36.47;31.70;;;;;;;8.58;100.00;99240.16;2124419;27;20188;-69
2022/05/02 01:23:00;;;;;;;38.53;31.63;;;;;;;8.59;100.00;99236.44;2124339;27;20242;-68
2022/05/02 01:24:03;;;;;;;36.60;31.60;;;;;;;8.57;100.00;99234.06;2124376;27;20196;-68
2022/05/02 01:25:06;;;;;;;39.50;31.38;;;;;;;8.56;100.00;99240.44;2124526;27;20196;-68
2022/05/02 01:26:07;;;;;;;37.55;31.42;;;;;;;8.58;100.00;99240.16;2124419;27;20536;-68
2022/05/02 01:27:10;;;;;;;40.03;31.30;;;;;;;8.61;100.00;99235.09;2124367;27;20241;-68
2022/05/02 01:28:11;;;;;;;38.15;31.92;;;;;;;8.53;100.00;99240.22;2124287;27;20217;-68
2022/05/02 01:29:13;;;;;;;37.53;32.13;;;;;;;8.51;100.00;99237.81;2115246;28;20217;-68
2022/05/02 01:30:15;;;;;;;35.63;31.20;;;;;;;8.53;100.00;99242.88;2115406;28;20185;-68
2022/05/02 01:31:16;;;;;;;39.60;32.22;;;;;;;8.49;100.00;99238.09;2124503;27;20288;-68
2022/05/02 01:32:17;;;;;;;37.03;31.52;;;;;;;8.45;100.00;99231.75;2124356;27;20241;-68
2022/05/02 01:33:18;;;;;;;38.13;32.10;;;;;;;8.48;100.00;99238.38;2124463;27;20191;-68
2022/05/02 01:34:20;;;;;;;37.93;31.87;;;;;;;8.42;100.00;99232.28;2124446;27;20192;-68
2022/05/02 01:35:25;;;;;;;36.25;30.85;;;;;;;8.47;100.00;99226.94;2115166;28;20193;-69
2022/05/02 01:36:28;;;;;;;41.33;31.92;;;;;;;8.42;100.00;99231.50;2115249;27;20646;-68
2022/05/02 01:37:30;;;;;;;42.20;33.42;;;;;;;8.37;100.00;99235.00;2114810;28;20232;-69
2022/05/02 01:38:31;;;;;;;38.63;32.17;;;;;;;8.32;100.00;99231.56;2106828;28;20198;-68
2022/05/02 01:39:33;;;;;;;41.63;31.50;;;;;;;8.30;100.00;99229.19;2115262;28;20190;-69
2022/05/02 01:40:33;;;;;;;36.28;31.80;;;;;;;8.28;100.00;99226.00;2124303;27;20188;-68
2022/05/02 01:41:35;;;;;;;39.73;32.63;;;;;;;8.30;100.00;99228.38;2115171;28;20698;-68
2022/05/02 01:42:37;;;;;;;40.75;31.52;;;;;;;8.28;100.00;99230.53;2106771;28;20587;-68
2022/05/02 01:43:39;;;;;;;38.47;32.47;;;;;;;8.30;100.00;99229.19;2105861;28;20208;-68
2022/05/02 01:44:40;;;;;;;42.63;32.67;;;;;;;8.26;100.00;99230.03;2115383;28;20192;-68
2022/05/02 01:45:44;;;;;;;39.47;32.40;;;;;;;8.23;100.00;99236.66;2115156;28;20254;-68
2022/05/02 01:46:45;;;;;;;39.78;33.08;;;;;;;8.20;100.00;99229.25;2106665;28;20296;-69
2022/05/02 01:47:47;;;;;;;37.63;32.70;;;;;;;8.20;100.00;99230.03;2115374;28;20189;-68
2022/05/02 01:48:48;;;;;;;40.88;33.13;;;;;;;8.21;100.00;99228.97;2124258;27;20188;-68
2022/05/02 01:49:51;;;;;;;39.07;32.67;;;;;;;8.26;100.00;99230.03;2123828;27;20271;-68
2022/05/02 01:50:52;;;;;;;37.75;32.20;;;;;;;8.24;100.00;99230.28;2123380;27;20184;-71
2022/05/02 01:51:57;;;;;;;36.83;31.98;;;;;;;8.24;100.00;99227.63;2124210;27;20191;-68
2022/05/02 01:52:58;;;;;;;40.10;32.92;;;;;;;8.20;100.00;99229.25;2115117;28;20191;-68
2022/05/02 01:54:00;;;;;;;40.57;32.47;;;;;;;8.18;100.00;99226.06;2115117;28;20275;-68
2022/05/02 01:55:00;;;;;;;39.55;33.90;;;;;;;8.18;100.00;99223.41;2124200;27;20188;-68
2022/05/02 01:56:03;;;;;;;44.80;34.80;;;;;;;8.19;100.00;99223.13;2124225;27;20216;-68
2022/05/02 01:57:07;;;;;;;41.67;33.53;;;;;;;8.17;100.00;99230.59;2115014;28;20203;-68
2022/05/02 01:58:10;;;;;;;41.58;33.97;;;;;;;8.15;100.00;99224.75;2115479;28;20234;-68
2022/05/02 01:59:14;;;;;;;40.78;33.63;;;;;;;8.15;100.00;99222.09;2115009;28;20227;-68
2022/05/02 02:00:18;;;;;;;41.72;33.30;;;;;;;8.15;100.00;99227.41;2107338;28;20239;-68
2022/05/02 02:01:20;;;;;;;36.03;32.13;;;;;;;8.13;100.00;99223.44;2115159;28;20693;-68
2022/05/02 02:02:21;;;;;;;36.33;32.47;;;;;;;8.12;100.00;99211.22;2124238;27;20654;-68
2022/05/02 02:03:22;;;;;;;40.28;33.55;;;;;;;8.10;100.00;99221.34;2114919;28;20278;-68
2022/05/02 02:05:52;;;;;;;39.03;32.38;;;;;;;8.07;100.00;99224.53;2114958;28;20189;-68
2022/05/02 02:06:58;;;;;;;47.88;32.97;;;;;;;8.03;100.00;99218.97;2116538;28;20209;-68
2022/05/02 02:08:01;;;;;;;38.03;32.38;;;;;;;8.02;100.00;99222.72;2124096;27;20271;-68
2022/05/02 02:09:02;;;;;;;39.57;31.87;;;;;;;7.97;100.00;99220.06;2114941;28;20713;-68
2022/05/02 02:10:04;;;;;;;40.05;33.08;;;;;;;7.93;100.00;99219.84;2115192;28;20185;-68
2022/05/02 02:11:08;;;;;;;38.50;32.63;;;;;;;7.92;100.00;99218.25;2124075;27;20184;-68
2022/05/02 02:12:11;;;;;;;43.20;33.25;;;;;;;7.95;100.00;99216.91;2114904;28;20679;-68
2022/05/02 02:13:15;;;;;;;37.72;32.83;;;;;;;7.89;100.00;99223.31;2115511;28;20177;-68
2022/05/02 02:14:17;;;;;;;39.50;32.05;;;;;;;7.87;100.00;99223.59;2114888;28;20204;-68
2022/05/02 02:15:18;;;;;;;39.70;33.60;;;;;;;7.86;100.00;99224.66;2115222;28;20686;-68
2022/05/02 02:16:20;;;;;;;41.37;32.53;;;;;;;7.84;100.00;99226.00;2124064;27;20563;-68
2022/05/02 02:17:20;;;;;;;42.00;33.55;;;;;;;7.83;100.00;99229.72;2124229;27;20191;-68
2022/05/02 02:18:22;;;;;;;42.63;34.23;;;;;;;7.81;100.00;99234.50;2124033;27;20213;-68
2022/05/02 02:19:23;;;;;;;41.47;33.97;;;;;;;7.79;100.00;99229.47;2123982;27;20188;-68
2022/05/02 02:20:25;;;;;;;36.03;32.17;;;;;;;7.76;100.00;99232.69;2124041;27;20588;-68
2022/05/02 02:21:26;;;;;;;43.22;33.33;;;;;;;7.79;100.00;99236.66;2123408;27;20232;-68
2022/05/02 02:22:29;;;;;;;43.10;34.13;;;;;;;7.79;100.00;99240.09;2124096;27;20192;-68
2022/05/02 02:23:30;;;;;;;45.50;35.17;;;;;;;7.84;100.00;99233.97;2124121;27;20970;-68
2022/05/02 02:24:32;;;;;;;43.20;35.07;;;;;;;7.97;100.00;99241.31;2114953;28;20652;-68
2022/05/02 02:25:34;;;;;;;52.55;37.83;;;;;;;8.08;100.00;99245.53;2106445;28;20656;-68
2022/05/02 02:26:37;;;;;;;53.22;39.10;;;;;;;8.13;100.00;99242.84;2114977;28;20605;-68
2022/05/02 02:27:40;;;;;;;53.15;39.80;;;;;;;8.16;100.00;99244.13;2123741;27;20216;-68
2022/05/02 02:28:43;;;;;;;54.10;37.17;;;;;;;8.17;100.00;99243.88;2113929;28;20243;-68
2022/05/02 02:29:44;;;;;;;47.90;34.58;;;;;;;8.16;100.00;99238.81;2114989;28;20221;-68
2022/05/02 02:30:46;;;;;;;49.47;37.23;;;;;;;8.16;100.00;99233.50;2123290;27;20200;-68
2022/05/02 02:31:47;;;;;;;49.10;36.47;;;;;;;8.16;100.00;99241.47;2123306;27;20265;-68
2022/05/02 02:32:48;;;;;;;46.87;35.63;;;;;;;8.14;100.00;99233.00;2114705;28;20201;-68
2022/05/02 02:33:53;;;;;;;47.63;36.72;;;;;;;8.14;100.00;99233.78;2115012;28;20745;-68
2022/05/02 02:34:55;;;;;;;43.95;35.38;;;;;;;8.11;100.00;99233.56;2123950;27;20192;-69
2022/05/02 02:35:59;;;;;;;45.30;35.33;;;;;;;8.12;100.00;99240.47;2123370;27;20212;-68
2022/05/02 02:37:00;;;;;;;46.58;36.28;;;;;;;8.09;100.00;99236.50;2124071;27;20168;-68
2022/05/02 02:38:03;;;;;;;45.88;36.30;;;;;;;8.10;100.00;99237.28;2124088;27;20190;-68
2022/05/02 02:39:05;;;;;;;47.85;36.95;;;;;;;8.06;100.00;99234.38;2114762;28;20204;-68
2022/05/02 02:40:09;;;;;;;50.03;37.30;;;;;;;8.06;100.00;99239.69;2106352;28;20202;-68
2022/05/02 02:41:13;;;;;;;44.38;35.97;;;;;;;8.09;100.00;99228.53;2106362;28;20193;-68
2022/05/02 02:42:14;;;;;;;48.47;36.35;;;;;;;8.10;100.00;99231.97;2115256;28;20189;-68
2022/05/02 02:43:16;;;;;;;47.70;35.97;;;;;;;8.08;100.00;99228.78;2123918;28;20247;-68
2022/05/02 02:44:16;;;;;;;46.78;36.20;;;;;;;8.04;100.00;99230.41;2114727;28;20197;-69
2022/05/02 02:45:18;;;;;;;44.90;35.33;;;;;;;7.98;100.00;99231.50;2106108;28;20667;-68
2022/05/02 02:46:19;;;;;;;38.38;33.42;;;;;;;7.96;100.00;99239.75;2115086;28;20541;-68
2022/05/02 02:47:21;;;;;;;41.20;34.10;;;;;;;7.96;100.00;99233.63;2114748;28;20235;-68
2022/05/02 02:48:22;;;;;;;44.58;34.72;;;;;;;7.93;100.00;99241.09;2115205;28;20255;-68
2022/05/02 02:49:25;;;;;;;42.72;35.88;;;;;;;7.96;100.00;99238.94;2124076;28;20192;-68
2022/05/02 02:50:27;;;;;;;47.70;36.42;;;;;;;7.90;100.00;99238.19;2123872;28;20188;-68
2022/05/02 02:51:28;;;;;;;43.83;35.63;;;;;;;7.87;100.00;99236.88;2114274;28;20373;-68
2022/05/02 02:52:30;;;;;;;46.10;34.57;;;;;;;7.83;100.00;99235.03;2114912;28;20188;-68
2022/05/02 02:53:33;;;;;;;47.13;35.17;;;;;;;7.79;100.00;99244.59;2114687;28;20193;-68
2022/05/02 02:54:33;;;;;;;42.22;33.97;;;;;;;7.74;100.00;99242.78;2115188;28;20192;-68
2022/05/02 02:55:36;;;;;;;47.50;33.63;;;;;;;7.71;100.00;99243.31;2114693;28;20296;-68
2022/05/02 02:56:37;;;;;;;44.10;35.97;;;;;;;7.65;100.00;99245.22;2106327;28;20205;-68
2022/05/02 02:57:38;;;;;;;42.87;33.83;;;;;;;7.67;100.00;99244.94;2114816;28;20181;-68
2022/05/02 02:58:39;;;;;;;45.22;35.55;;;;;;;7.63;100.00;99243.88;2123854;28;20192;-68
2022/05/02 02:59:41;;;;;;;42.60;35.40;;;;;;;7.56;100.00;99236.22;2123854;28;20245;-68
2022/05/02 03:00:43;;;;;;;41.80;35.03;;;;;;;7.54;100.00;99237.53;2124162;28;20192;-68
2022/05/02 03:01:44;;;;;;;41.78;33.85;;;;;;;7.48;100.00;99236.78;2124964;27;20184;-68
2022/05/02 03:02:47;;;;;;;43.85;33.88;;;;;;;7.45;100.00;99241.81;2125829;27;20240;-68
2022/05/02 03:03:48;;;;;;;42.97;34.50;;;;;;;7.45;100.00;99239.16;2125480;27;20680;-68
2022/05/02 03:06:08;;;;;;;48.63;35.53;;;;;;;7.36;100.00;99242.38;2124974;27;20274;-69
2022/05/02 03:07:10;;;;;;;43.70;34.10;;;;;;;7.32;100.00;99241.34;2116351;28;20189;-68
2022/05/02 03:08:11;;;;;;;49.38;34.25;;;;;;;7.30;100.00;99226.75;2108006;28;20197;-68
2022/05/02 03:09:15;;;;;;;44.33;33.97;;;;;;;7.29;100.00;99239.19;2116690;28;20181;-68
2022/05/02 03:10:18;;;;;;;47.20;32.92;;;;;;;7.29;100.00;99238.41;2125790;27;20259;-68
2022/05/02 03:11:20;;;;;;;43.88;33.38;;;;;;;7.30;100.00;99243.47;2125488;27;20191;-68
2022/05/02 03:12:21;;;;;;;46.40;35.67;;;;;;;7.36;100.00;99244.22;2125509;27;20192;-68
2022/05/02 03:13:23;;;;;;;46.20;35.67;;;;;;;7.34;100.00;99243.72;2125493;27;20184;-68
2022/05/02 03:14:24;;;;;;;44.97;36.20;;;;;;;7.39;100.00;99245.56;2116295;28;20529;-68
2022/05/02 03:15:26;;;;;;;46.47;36.53;;;;;;;7.42;100.00;99253.00;2107970;28;20197;-68
2022/05/02 03:16:26;;;;;;;49.67;36.58;;;;;;;7.42;100.00;99247.69;2116332;28;20197;-68
2022/05/02 03:17:30;;;;;;;48.77;36.17;;;;;;;7.45;100.00;99249.78;2116394;28;20216;-68
2022/05/02 03:18:31;;;;;;;47.85;37.60;;;;;;;7.46;100.00;99241.53;2125466;27;20189;-68
2022/05/02 03:19:32;;;;;;;49.67;37.40;;;;;;;7.54;100.00;99245.50;2125526;27;20263;-68
2022/05/02 03:20:33;;;;;;;44.08;35.63;;;;;;;7.53;100.00;99236.75;2125409;27;20260;-68
2022/05/02 03:21:35;;;;;;;47.40;36.47;;;;;;;7.54;100.00;99237.53;2115844;28;20220;-68
2022/05/02 03:22:35;;;;;;;48.28;36.28;;;;;;;7.55;100.00;99247.09;2116531;27;20192;-68
2022/05/02 03:23:38;;;;;;;48.77;36.47;;;;;;;7.58;100.00;99247.38;2125312;27;20220;-68
2022/05/02 03:24:42;;;;;;;48.72;36.20;;;;;;;7.58;100.00;99247.38;2125353;27;20271;-69
2022/05/02 03:25:44;;;;;;;45.15;35.08;;;;;;;7.57;100.00;99242.31;2125500;27;20184;-68
2022/05/02 03:26:44;;;;;;;45.08;35.47;;;;;;;7.57;100.00;99243.13;2116322;28;20189;-68
2022/05/02 03:27:46;;;;;;;50.10;36.60;;;;;;;7.56;100.00;99240.75;2116191;28;20220;-68
2022/05/02 03:28:47;;;;;;;44.65;35.88;;;;;;;7.57;100.00;99245.78;2116122;28;20295;-68
2022/05/02 03:29:48;;;;;;;49.60;36.83;;;;;;;7.54;100.00;99246.28;2116288;28;20193;-68
2022/05/02 03:30:49;;;;;;;48.15;35.35;;;;;;;7.54;100.00;99240.19;2117010;28;20189;-68
2022/05/02 03:31:53;;;;;;;46.23;35.80;;;;;;;7.51;100.00;99254.03;2116171;28;20192;-68
2022/05/02 03:32:56;;;;;;;43.33;35.72;;;;;;;7.50;100.00;99250.56;2108125;28;20243;-68
2022/05/02 03:33:58;;;;;;;50.37;37.83;;;;;;;7.49;100.00;99250.84;2107723;28;20197;-69
2022/05/02 03:34:59;;;;;;;51.47;37.65;;;;;;;7.49;100.00;99248.19;2116339;28;20188;-68
2022/05/02 03:36:03;;;;;;;46.80;37.90;;;;;;;7.45;100.00;99244.47;2116261;28;20216;-68
2022/05/02 03:37:07;;;;;;;52.15;38.28;;;;;;;7.50;100.00;99250.56;2116905;28;20173;-68
2022/05/02 03:38:12;;;;;;;53.33;39.60;;;;;;;7.52;100.00;99240.47;2116905;28;20667;-68
2022/05/02 03:39:13;;;;;;;55.13;39.60;;;;;;;7.53;100.00;99250.03;2116818;27;20678;-68
2022/05/02 03:40:16;;;;;;;48.70;37.97;;;;;;;7.53;100.00;99236.75;2116073;28;20554;-68
2022/05/02 03:41:16;;;;;;;54.95;39.95;;;;;;;7.56;100.00;99240.75;2107410;28;20205;-68
2022/05/02 03:42:20;;;;;;;50.90;38.90;;;;;;;7.56;100.00;99244.19;2116271;28;20273;-68
2022/05/02 03:43:21;;;;;;;48.05;37.72;;;;;;;7.57;100.00;99239.66;2116876;28;20189;-68
2022/05/02 03:44:23;;;;;;;51.67;39.63;;;;;;;7.57;100.00;99243.13;2116822;28;20275;-68
2022/05/02 03:45:27;;;;;;;51.08;36.45;;;;;;;7.61;100.00;99240.69;2116810;27;20558;-68
2022/05/02 03:46:28;;;;;;;48.05;36.40;;;;;;;7.59;100.00;99237.53;2116838;28;20215;-68
2022/05/02 03:47:30;;;;;;;45.27;36.37;;;;;;;7.60;100.00;99241.78;2115679;28;20243;-68
2022/05/02 03:48:30;;;;;;;48.97;37.17;;;;;;;7.60;100.00;99229.28;2116214;28;20185;-68
2022/05/02 03:49:35;;;;;;;46.97;36.73;;;;;;;7.61;100.00;99232.75;2116701;28;20220;-69
2022/05/02 03:50:36;;;;;;;48.47;36.40;;;;;;;7.60;100.00;99236.47;2116731;28;20192;-68
2022/05/02 03:51:37;;;;;;;45.90;35.87;;;;;;;7.60;100.00;99236.47;2116423;28;20224;-68
2022/05/02 03:52:38;;;;;;;45.85;36.53;;;;;;;7.63;100.00;99238.56;2116790;28;20418;-68
2022/05/02 03:53:40;;;;;;;45.53;36.17;;;;;;;7.65;100.00;99239.09;2115975;28;20272;-68
2022/05/02 03:54:42;;;;;;;51.45;37.20;;;;;;;7.65;100.00;99237.25;2115894;28;20201;-68
2022/05/02 03:55:45;;;;;;;44.53;36.38;;;;;;;7.65;100.00;99239.91;2115967;28;20200;-68
2022/05/02 03:56:46;;;;;;;53.50;36.97;;;;;;;7.66;100.00;99240.69;2107717;28;20198;-68
2022/05/02 03:57:47;;;;;;;45.35;36.42;;;;;;;7.69;100.00;99237.47;2116082;28;20197;-68
2022/05/02 03:58:49;;;;;;;48.33;36.83;;;;;;;7.67;100.00;99236.97;2115938;28;20201;-68
2022/05/02 03:59:51;;;;;;;44.03;35.85;;;;;;;7.62;100.00;99234.31;2107540;28;20266;-68
2022/05/02 04:00:53;;;;;;;43.08;35.30;;;;;;;7.54;100.00;99242.84;2116245;28;20186;-68
2022/05/02 04:01:54;;;;;;;51.13;38.30;;;;;;;7.54;100.00;99242.84;2116606;28;20280;-68
2022/05/02 04:02:55;;;;;;;50.45;38.25;;;;;;;7.54;100.00;99248.16;2116640;28;20253;-68
2022/05/02 04:03:57;;;;;;;49.03;37.20;;;;;;;7.53;100.00;99242.06;2116447;28;20205;-68
2022/05/02 04:05:01;;;;;;;47.70;37.53;;;;;;;7.49;100.00;99237.56;2115827;28;20204;-68
2022/05/02 04:06:03;;;;;;;48.88;36.10;;;;;;;7.49;100.00;99245.53;2115715;28;20192;-68
2022/05/02 04:07:06;;;;;;;46.50;35.60;;;;;;;7.53;100.00;99241.25;2116577;28;20177;-68
2022/05/02 04:08:07;;;;;;;42.78;35.92;;;;;;;7.55;100.00;99239.13;2115827;28;20216;-68
2022/05/02 04:09:10;;;;;;;40.85;34.97;;;;;;;7.54;100.00;99243.63;2115941;28;20188;-68
2022/05/02 04:10:12;;;;;;;48.88;36.33;;;;;;;7.51;100.00;99243.41;2116687;28;20193;-69
2022/05/02 04:11:14;;;;;;;40.08;34.55;;;;;;;7.49;100.00;99249.00;2116533;28;20217;-68
2022/05/02 04:12:18;;;;;;;44.58;34.90;;;;;;;7.53;100.00;99250.03;2115959;28;20293;-68
2022/05/02 04:13:19;;;;;;;44.70;34.20;;;;;;;7.53;100.00;99249.22;2115093;28;20189;-68
2022/05/02 04:14:21;;;;;;;49.67;34.57;;;;;;;7.55;100.00;99249.75;2115415;28;20232;-68
2022/05/02 04:15:22;;;;;;;44.00;34.63;;;;;;;7.56;100.00;99246.06;2115950;28;20196;-68
2022/05/02 04:16:25;;;;;;;38.93;33.73;;;;;;;7.56;100.00;99243.41;2115783;28;20275;-68
2022/05/02 04:17:27;;;;;;;40.75;33.60;;;;;;;7.54;100.00;99246.28;2115952;28;20272;-68
2022/05/02 04:18:28;;;;;;;42.50;32.60;;;;;;;7.57;100.00;99247.63;2115533;28;20663;-68
2022/05/02 04:19:30;;;;;;;45.03;32.67;;;;;;;7.60;100.00;99247.09;2107311;28;20623;-68
2022/05/02 04:20:30;;;;;;;41.00;33.85;;;;;;;7.59;100.00;99248.16;2116000;28;20641;-68
2022/05/02 04:21:32;;;;;;;40.37;33.00;;;;;;;7.57;100.00;99253.75;2115340;28;20248;-68
2022/05/02 04:22:35;;;;;;;41.15;31.60;;;;;;;7.61;100.00;99259.28;2115861;28;20254;-68
2022/05/02 04:23:37;;;;;;;35.17;30.33;;;;;;;7.63;100.00;99259.81;2115204;28;20281;-68
2022/05/02 04:24:38;;;;;;;42.97;31.52;;;;;;;7.63;100.00;99254.50;2115946;28;20200;-68
2022/05/02 04:25:40;;;;;;;41.43;32.13;;;;;;;7.65;100.00;99260.34;2116638;28;20194;-68
2022/05/02 04:26:42;;;;;;;39.03;31.15;;;;;;;7.63;100.00;99259.81;2115739;28;20573;-68
2022/05/02 04:27:44;;;;;;;36.17;30.73;;;;;;;7.64;100.00;99259.56;2115785;28;20711;-68
2022/05/02 04:28:45;;;;;;;36.88;30.52;;;;;;;7.68;100.00;99254.50;2116380;28;20556;-68
2022/05/02 04:29:46;;;;;;;39.80;31.43;;;;;;;7.71;100.00;99259.25;2115668;28;20311;-68
2022/05/02 04:30:47;;;;;;;38.58;31.23;;;;;;;7.71;100.00;99264.56;2107339;28;20201;-68
2022/05/02 04:31:49;;;;;;;41.53;30.67;;;;;;;7.78;100.00;99257.09;2115800;28;20221;-68
2022/05/02 04:32:50;;;;;;;34.92;30.17;;;;;;;7.82;100.00;99255.50;2116553;28;20427;-68
2022/05/02 04:33:51;;;;;;;33.33;29.63;;;;;;;7.81;100.00;99255.75;2116425;28;20639;-68
2022/05/02 04:34:55;;;;;;;37.60;30.30;;;;;;;7.83;100.00;99259.75;2116538;28;20185;-68
2022/05/02 04:35:56;;;;;;;37.53;30.85;;;;;;;7.83;100.00;99261.59;2116364;28;20216;-68
2022/05/02 04:36:58;;;;;;;37.67;30.97;;;;;;;7.85;100.00;99265.56;2116688;28;20663;-68
2022/05/02 04:38:01;;;;;;;36.97;31.23;;;;;;;7.85;100.00;99260.25;2115667;28;20197;-68
2022/05/02 04:39:03;;;;;;;38.65;32.80;;;;;;;7.87;100.00;99247.50;2115886;28;20185;-68
2022/05/02 04:40:05;;;;;;;40.03;32.42;;;;;;;7.90;100.00;99248.78;2116536;28;20199;-68
2022/05/02 04:41:06;;;;;;;40.50;30.63;;;;;;;7.89;100.00;99248.00;2116310;28;20185;-68
2022/05/02 04:42:09;;;;;;;38.50;31.08;;;;;;;7.93;100.00;99251.72;2115583;28;20204;-68
2022/05/02 04:43:11;;;;;;;37.85;30.73;;;;;;;7.92;100.00;99244.81;2107269;28;20330;-68
2022/05/02 04:44:11;;;;;;;42.58;31.05;;;;;;;7.94;100.00;99253.31;2115934;28;20200;-68
2022/05/02 04:45:16;;;;;;;34.50;30.70;;;;;;;7.97;100.00;99251.16;2115217;28;20262;-68
2022/05/02 04:46:17;;;;;;;35.42;30.40;;;;;;;7.99;100.00;99249.81;2115800;28;20185;-68
2022/05/02 04:47:19;;;;;;;37.33;30.65;;;;;;;7.99;100.00;99260.44;2116523;28;20723;-68
2022/05/02 04:48:21;;;;;;;37.40;32.00;;;;;;;8.04;100.00;99256.97;2116223;28;20197;-68